Saturday, December 16, 2017, 5:56 AM EST
Back to Local

KEKN, Jennings Randolph Field

Location: Elkins, WV, United States Lat: 38.883
Local Time: 5:56 AM EST (10:56 GMT) Lon: -79.85
Time Zone: US/Eastern Elev: 1988 ft

Show me the last for .
Show Decoded

2017-12-16 04:51 METAR KEKN 160951Z AUTO 23010G16KT 10SM FEW021 FEW049 M03/M08 A3007 RMK AO2
                 SNB0852E12 SLP210 P0000 T10281078 TSNO =
2017-12-16 03:51 METAR KEKN 160851Z AUTO 25008KT 9SM FEW023 OVC038 M03/M08 A3007 RMK AO2 SNB29E43
                 SLP210 P0000 60000 T10281078 51010 TSNO =
2017-12-16 02:51 METAR KEKN 160751Z AUTO 28010G17KT 10SM SCT028 OVC038 M03/M08 A3007 RMK AO2
                 SLP210 T10281083 TSNO =
2017-12-16 02:41 METAR KEKN 160741Z AUTO 26008KT 10SM SCT028 OVC038 M03/M08 A3006 =
2017-12-16 02:00 METAR KEKN 160700Z AUTO 28006KT 10SM BKN028 OVC035 M03/M08 A3005 RMK AO2
                 T10281083 TSNO =
2017-12-16 01:51 METAR KEKN 160651Z AUTO VRB05KT 10SM BKN030 OVC035 M03/M09 A3005 RMK AO2
                 SNE16B33E45 SLP203 P0000 T10281089 TSNO =
2017-12-16 01:38 METAR KEKN 160638Z AUTO 25006G16KT 9SM -SN BKN030 OVC035 M03/M09 A3005 =
2017-12-16 01:04 METAR KEKN 160604Z AUTO 25008G14KT 9SM -SN OVC029 M03/M09 A3004 =
2017-12-16 00:51 METAR KEKN 160551Z AUTO 27009G16KT 10SM -SN OVC031 M03/M09 A3004 RMK AO2
                 SNE0457B19E29B49 SLP199 P0000 60000 T10281089 11028 21033 51012 TSNO =
2017-12-15 23:59 METAR KEKN 160459Z AUTO 27008G20KT 9SM SCT030 OVC036 M03/M09 A3003 RMK AO2 SNE57
                 P0000 T10281089 TSNO =
2017-12-15 23:51 METAR KEKN 160451Z AUTO 27012G20KT 9SM -SN BKN029 OVC036 M03/M09 A3003 RMK AO2
                 SLP198 P0000 T10281089 410281044 TSNO =
2017-12-15 23:23 METAR KEKN 160423Z AUTO 26010G18KT 9SM -SN OVC029 M03/M09 A3003 RMK AO2 P0000
                 T10281089 TSNO =
2017-12-15 22:51 METAR KEKN 160351Z AUTO 25009KT 9SM -SN FEW027 OVC037 M03/M09 A3002 RMK AO2
                 SNB37 SLP193 P0000 T10281089 TSNO =
2017-12-15 22:22 METAR KEKN 160322Z AUTO 27012G18KT 10SM BKN031 OVC039 M03/M09 A3001 RMK AO2
                 T10281089 TSNO =
2017-12-15 22:11 METAR KEKN 160311Z AUTO 25010G20KT 10SM BKN029 OVC039 M03/M09 A3000 RMK AO2
                 T10281089 TSNO =
2017-12-15 21:51 METAR KEKN 160251Z AUTO 25008G18KT 10SM BKN033 OVC042 M03/M09 A3000 RMK AO2
                 SLP187 60000 T10281089 51016 TSNO =
2017-12-15 20:51 METAR KEKN 160151Z AUTO 25007G19KT 10SM OVC041 M03/M09 A2999 RMK AO2 SNE0057
                 SLP183 P0000 T10281094 TSNO =
2017-12-15 19:51 METAR KEKN 160051Z AUTO 25008G18KT 7SM -SN FEW030 OVC041 M03/M09 A2997 RMK AO2
                 SNE13B45 SLP178 P0000 T10331089 TSNO =
2017-12-15 18:51 METAR KEKN 152351Z AUTO 23010G17KT 7SM -SN FEW028 OVC040 M03/M09 A2995 RMK AO2
                 SNB00 SLP171 P0000 60000 T10331089 11028 21033 53019 TSNO =
2017-12-15 17:51 METAR KEKN 152251Z AUTO 22007KT 10SM OVC046 M03/M09 A2992 RMK AO2 SNE25 SLP161
                 P0000 T10331089 TSNO =
2017-12-15 17:08 METAR KEKN 152208Z AUTO 23010KT 4SM -SN BKN030 OVC035 M03/M09 A2992 =
2017-12-15 16:51 METAR KEKN 152151Z AUTO 23009KT 8SM -SN BKN029 OVC036 M03/M09 A2992 RMK AO2
                 SNB31 SLP159 P0000 T10331089 TSNO =
2017-12-15 16:12 METAR KEKN 152112Z AUTO 25011G19KT 10SM OVC033 M03/M09 A2990 RMK AO2 T10281094
                 TSNO =
2017-12-15 15:51 METAR KEKN 152051Z AUTO 25005KT 10SM BKN029 OVC035 M03/M09 A2989 RMK AO2 SLP150
                 60000 T10281089 53002 TSNO =
2017-12-15 14:51 METAR KEKN 151951Z AUTO 25008KT 8SM OVC026 M03/M08 A2989 RMK AO2 SNB11E39 SLP149
                 P0000 T10281083 TSNO =
2017-12-15 13:51 METAR KEKN 151851Z AUTO 25012G17KT 8SM OVC020 M03/M08 A2988 RMK AO2 SLP148
                 T10281078 TSNO =
2017-12-15 12:51 METAR KEKN 151751Z AUTO 27007KT 230V300 8SM OVC019 M03/M07 A2989 RMK AO2 SLP148
                 T10281067 11028 21039 56015 TSNO =
2017-12-15 11:51 METAR KEKN 151651Z AUTO 25004KT 10SM OVC020 M03/M07 A2989 RMK AO2 SLP150
                 T10281067 TSNO =
2017-12-15 10:51 METAR KEKN 151551Z AUTO 23005KT 8SM OVC022 M03/M07 A2992 RMK AO2 SLP160
                 T10281072 TSNO =
2017-12-15 09:51 METAR KEKN 151451Z AUTO 27004KT 7SM OVC025 M03/M07 A2993 RMK AO2 SLP163
                 T10281072 53003 TSNO =
2017-12-15 08:51 METAR KEKN 151351Z AUTO 00000KT 9SM OVC026 M03/M07 A2992 RMK AO2 SLP161
                 T10281072 TSNO =
2017-12-15 07:51 METAR KEKN 151251Z AUTO 00000KT 7SM OVC027 M03/M06 A2991 RMK AO2 SLP158
                 T10331061 TSNO =
2017-12-15 06:51 METAR KEKN 151151Z AUTO 00000KT 7SM OVC024 M04/M06 A2992 RMK AO2 SLP160 70003
                 T10391061 11033 21044 56010 TSNO =

Support USWX by starting your Amazon purchase here.